sensor_id;sensor_type;location;lat;lon;timestamp;temperature;humidity
8067;DHT22;4076;48.076;9.118;2023-04-23T00:02:15;10.90;99.90
8067;DHT22;4076;48.076;9.118;2023-04-23T00:04:47;10.90;99.90
8067;DHT22;4076;48.076;9.118;2023-04-23T00:07:14;10.80;99.90
8067;DHT22;4076;48.076;9.118;2023-04-23T00:09:42;10.80;99.90
8067;DHT22;4076;48.076;9.118;2023-04-23T00:12:08;10.80;99.90
8067;DHT22;4076;48.076;9.118;2023-04-23T00:14:34;10.80;99.90
8067;DHT22;4076;48.076;9.118;2023-04-23T00:17:00;10.80;99.90
8067;DHT22;4076;48.076;9.118;2023-04-23T00:19:25;10.80;99.90
8067;DHT22;4076;48.076;9.118;2023-04-23T00:21:51;10.80;99.90
8067;DHT22;4076;48.076;9.118;2023-04-23T00:24:16;10.80;99.90
8067;DHT22;4076;48.076;9.118;2023-04-23T00:26:42;10.70;99.90
8067;DHT22;4076;48.076;9.118;2023-04-23T00:29:08;10.70;99.90
8067;DHT22;4076;48.076;9.118;2023-04-23T00:31:33;10.70;99.90
8067;DHT22;4076;48.076;9.118;2023-04-23T00:33:59;10.60;99.90
8067;DHT22;4076;48.076;9.118;2023-04-23T00:36:24;10.60;99.90
8067;DHT22;4076;48.076;9.118;2023-04-23T00:38:50;10.60;99.90
8067;DHT22;4076;48.076;9.118;2023-04-23T00:41:17;10.70;99.90
8067;DHT22;4076;48.076;9.118;2023-04-23T00:43:43;10.60;99.90
8067;DHT22;4076;48.076;9.118;2023-04-23T00:46:10;10.70;99.90
8067;DHT22;4076;48.076;9.118;2023-04-23T00:48:36;10.70;99.90
8067;DHT22;4076;48.076;9.118;2023-04-23T00:51:05;10.80;99.90
8067;DHT22;4076;48.076;9.118;2023-04-23T00:53:32;10.80;99.90
8067;DHT22;4076;48.076;9.118;2023-04-23T00:55:58;10.90;99.90
8067;DHT22;4076;48.076;9.118;2023-04-23T00:58:26;10.80;99.90
8067;DHT22;4076;48.076;9.118;2023-04-23T01:00:52;10.80;99.90
8067;DHT22;4076;48.076;9.118;2023-04-23T01:03:18;10.80;99.90
8067;DHT22;4076;48.076;9.118;2023-04-23T01:05:47;10.80;99.90
8067;DHT22;4076;48.076;9.118;2023-04-23T01:08:15;10.80;99.90
8067;DHT22;4076;48.076;9.118;2023-04-23T01:10:46;10.80;99.90
8067;DHT22;4076;48.076;9.118;2023-04-23T01:13:14;10.80;99.90
8067;DHT22;4076;48.076;9.118;2023-04-23T01:15:42;10.80;99.90
8067;DHT22;4076;48.076;9.118;2023-04-23T01:18:08;10.70;99.90
8067;DHT22;4076;48.076;9.118;2023-04-23T01:20:34;10.70;99.90
8067;DHT22;4076;48.076;9.118;2023-04-23T01:23:01;10.70;99.90
8067;DHT22;4076;48.076;9.118;2023-04-23T01:25:27;10.70;99.90
8067;DHT22;4076;48.076;9.118;2023-04-23T01:27:53;10.80;99.90
8067;DHT22;4076;48.076;9.118;2023-04-23T01:30:19;10.80;99.90
8067;DHT22;4076;48.076;9.118;2023-04-23T01:32:46;10.80;99.90
8067;DHT22;4076;48.076;9.118;2023-04-23T01:35:13;10.70;99.90
8067;DHT22;4076;48.076;9.118;2023-04-23T01:37:38;10.70;99.90
8067;DHT22;4076;48.076;9.118;2023-04-23T01:40:06;10.70;99.90
8067;DHT22;4076;48.076;9.118;2023-04-23T01:42:32;10.70;99.90
8067;DHT22;4076;48.076;9.118;2023-04-23T01:44:58;10.70;99.90
8067;DHT22;4076;48.076;9.118;2023-04-23T01:47:24;10.70;99.90
8067;DHT22;4076;48.076;9.118;2023-04-23T01:49:50;10.70;99.90
8067;DHT22;4076;48.076;9.118;2023-04-23T01:52:16;10.70;99.90
8067;DHT22;4076;48.076;9.118;2023-04-23T01:54:41;10.70;99.90
8067;DHT22;4076;48.076;9.118;2023-04-23T01:57:08;10.70;99.90
8067;DHT22;4076;48.076;9.118;2023-04-23T01:59:34;10.70;99.90
8067;DHT22;4076;48.076;9.118;2023-04-23T02:02:00;10.70;99.90
8067;DHT22;4076;48.076;9.118;2023-04-23T02:04:27;10.70;99.90
8067;DHT22;4076;48.076;9.118;2023-04-23T02:06:54;10.70;99.90
8067;DHT22;4076;48.076;9.118;2023-04-23T02:09:20;10.70;99.90
8067;DHT22;4076;48.076;9.118;2023-04-23T02:11:45;10.60;99.90
8067;DHT22;4076;48.076;9.118;2023-04-23T02:14:11;10.70;99.90
8067;DHT22;4076;48.076;9.118;2023-04-23T02:16:37;10.60;99.90
8067;DHT22;4076;48.076;9.118;2023-04-23T02:19:03;10.60;99.90
8067;DHT22;4076;48.076;9.118;2023-04-23T02:21:28;10.60;99.90
8067;DHT22;4076;48.076;9.118;2023-04-23T02:23:54;10.60;99.90
8067;DHT22;4076;48.076;9.118;2023-04-23T02:26:20;10.60;99.90
8067;DHT22;4076;48.076;9.118;2023-04-23T02:28:47;10.60;99.90
8067;DHT22;4076;48.076;9.118;2023-04-23T02:31:13;10.60;99.90
8067;DHT22;4076;48.076;9.118;2023-04-23T02:33:40;10.60;99.90
8067;DHT22;4076;48.076;9.118;2023-04-23T02:36:07;10.70;99.90
8067;DHT22;4076;48.076;9.118;2023-04-23T02:38:33;10.70;99.90
8067;DHT22;4076;48.076;9.118;2023-04-23T02:40:58;10.60;99.90
8067;DHT22;4076;48.076;9.118;2023-04-23T02:43:24;10.60;99.90
8067;DHT22;4076;48.076;9.118;2023-04-23T02:45:49;10.60;99.90
8067;DHT22;4076;48.076;9.118;2023-04-23T02:48:15;10.50;99.90
8067;DHT22;4076;48.076;9.118;2023-04-23T02:50:41;10.50;99.90
8067;DHT22;4076;48.076;9.118;2023-04-23T02:53:06;10.50;99.90
8067;DHT22;4076;48.076;9.118;2023-04-23T02:55:32;10.40;99.90
8067;DHT22;4076;48.076;9.118;2023-04-23T02:57:59;10.40;99.90
8067;DHT22;4076;48.076;9.118;2023-04-23T03:00:25;10.30;99.90
8067;DHT22;4076;48.076;9.118;2023-04-23T03:02:51;10.30;99.90
8067;DHT22;4076;48.076;9.118;2023-04-23T03:05:17;10.20;99.90
8067;DHT22;4076;48.076;9.118;2023-04-23T03:07:42;10.10;99.90
8067;DHT22;4076;48.076;9.118;2023-04-23T03:10:08;10.10;99.90
8067;DHT22;4076;48.076;9.118;2023-04-23T03:12:34;10.10;99.90
8067;DHT22;4076;48.076;9.118;2023-04-23T03:14:59;10.20;99.90
8067;DHT22;4076;48.076;9.118;2023-04-23T03:17:25;10.20;99.90
8067;DHT22;4076;48.076;9.118;2023-04-23T03:19:51;10.20;99.90
8067;DHT22;4076;48.076;9.118;2023-04-23T03:22:16;10.20;99.90
8067;DHT22;4076;48.076;9.118;2023-04-23T03:24:42;10.20;99.90
8067;DHT22;4076;48.076;9.118;2023-04-23T03:27:07;10.20;99.90
8067;DHT22;4076;48.076;9.118;2023-04-23T03:29:33;10.20;99.90
8067;DHT22;4076;48.076;9.118;2023-04-23T03:31:59;10.20;99.90
8067;DHT22;4076;48.076;9.118;2023-04-23T03:34:24;10.20;99.90
8067;DHT22;4076;48.076;9.118;2023-04-23T03:36:50;10.20;99.90
8067;DHT22;4076;48.076;9.118;2023-04-23T03:39:15;10.20;99.90
8067;DHT22;4076;48.076;9.118;2023-04-23T03:41:42;10.20;99.90
8067;DHT22;4076;48.076;9.118;2023-04-23T03:44:07;10.20;99.90
8067;DHT22;4076;48.076;9.118;2023-04-23T03:46:33;10.20;99.90
8067;DHT22;4076;48.076;9.118;2023-04-23T03:48:59;10.10;99.90
8067;DHT22;4076;48.076;9.118;2023-04-23T03:51:24;10.10;99.90
8067;DHT22;4076;48.076;9.118;2023-04-23T03:53:51;10.10;99.90
8067;DHT22;4076;48.076;9.118;2023-04-23T03:56:17;10.10;99.90
8067;DHT22;4076;48.076;9.118;2023-04-23T03:58:42;10.10;99.90
8067;DHT22;4076;48.076;9.118;2023-04-23T04:01:08;10.10;99.90
8067;DHT22;4076;48.076;9.118;2023-04-23T04:03:34;10.10;99.90
8067;DHT22;4076;48.076;9.118;2023-04-23T04:06:00;10.10;99.90
8067;DHT22;4076;48.076;9.118;2023-04-23T04:08:25;10.10;99.90
8067;DHT22;4076;48.076;9.118;2023-04-23T04:10:51;10.10;99.90
8067;DHT22;4076;48.076;9.118;2023-04-23T04:13:17;10.10;99.90
8067;DHT22;4076;48.076;9.118;2023-04-23T04:15:44;10.00;99.90
8067;DHT22;4076;48.076;9.118;2023-04-23T04:18:09;10.00;99.90
8067;DHT22;4076;48.076;9.118;2023-04-23T04:20:35;10.00;99.90
8067;DHT22;4076;48.076;9.118;2023-04-23T04:23:00;10.00;99.90
8067;DHT22;4076;48.076;9.118;2023-04-23T04:25:27;10.00;99.90
8067;DHT22;4076;48.076;9.118;2023-04-23T04:27:57;9.90;99.90
8067;DHT22;4076;48.076;9.118;2023-04-23T04:30:28;9.90;99.90
8067;DHT22;4076;48.076;9.118;2023-04-23T04:32:56;9.90;99.90
8067;DHT22;4076;48.076;9.118;2023-04-23T04:35:23;9.90;99.90
8067;DHT22;4076;48.076;9.118;2023-04-23T04:37:49;9.90;99.90
8067;DHT22;4076;48.076;9.118;2023-04-23T04:40:14;9.90;99.90
8067;DHT22;4076;48.076;9.118;2023-04-23T04:42:40;9.90;99.90
8067;DHT22;4076;48.076;9.118;2023-04-23T04:45:07;9.90;99.90
8067;DHT22;4076;48.076;9.118;2023-04-23T04:47:33;9.90;99.90
8067;DHT22;4076;48.076;9.118;2023-04-23T04:49:58;9.90;99.90
8067;DHT22;4076;48.076;9.118;2023-04-23T04:52:25;9.90;99.90
8067;DHT22;4076;48.076;9.118;2023-04-23T04:54:50;9.80;99.90
8067;DHT22;4076;48.076;9.118;2023-04-23T04:57:16;9.80;99.90
8067;DHT22;4076;48.076;9.118;2023-04-23T04:59:41;9.80;99.90
8067;DHT22;4076;48.076;9.118;2023-04-23T05:02:07;9.80;99.90
8067;DHT22;4076;48.076;9.118;2023-04-23T05:04:33;9.80;99.90
8067;DHT22;4076;48.076;9.118;2023-04-23T05:06:58;9.90;99.90
8067;DHT22;4076;48.076;9.118;2023-04-23T05:09:24;9.90;99.90
8067;DHT22;4076;48.076;9.118;2023-04-23T05:11:50;9.90;99.90
8067;DHT22;4076;48.076;9.118;2023-04-23T05:14:16;9.90;99.90
8067;DHT22;4076;48.076;9.118;2023-04-23T05:16:42;9.90;99.90
8067;DHT22;4076;48.076;9.118;2023-04-23T05:19:07;9.90;99.90
8067;DHT22;4076;48.076;9.118;2023-04-23T05:21:33;9.90;99.90
8067;DHT22;4076;48.076;9.118;2023-04-23T05:23:59;10.00;99.90
8067;DHT22;4076;48.076;9.118;2023-04-23T05:26:24;10.00;99.90
8067;DHT22;4076;48.076;9.118;2023-04-23T05:28:50;10.00;99.90
8067;DHT22;4076;48.076;9.118;2023-04-23T05:31:16;10.00;99.90
8067;DHT22;4076;48.076;9.118;2023-04-23T05:33:41;10.10;99.90
8067;DHT22;4076;48.076;9.118;2023-04-23T05:36:09;10.00;99.90
8067;DHT22;4076;48.076;9.118;2023-04-23T05:38:35;10.00;99.90
8067;DHT22;4076;48.076;9.118;2023-04-23T05:41:01;10.00;99.90
8067;DHT22;4076;48.076;9.118;2023-04-23T05:43:26;10.00;99.90
8067;DHT22;4076;48.076;9.118;2023-04-23T05:45:52;10.10;99.90
8067;DHT22;4076;48.076;9.118;2023-04-23T05:48:18;10.10;99.90
8067;DHT22;4076;48.076;9.118;2023-04-23T05:50:43;10.10;99.90
8067;DHT22;4076;48.076;9.118;2023-04-23T05:53:09;10.10;99.90
8067;DHT22;4076;48.076;9.118;2023-04-23T05:55:35;10.10;99.90
8067;DHT22;4076;48.076;9.118;2023-04-23T05:58:00;10.10;99.90
8067;DHT22;4076;48.076;9.118;2023-04-23T06:00:27;10.10;99.90
8067;DHT22;4076;48.076;9.118;2023-04-23T06:02:52;10.10;99.90
8067;DHT22;4076;48.076;9.118;2023-04-23T06:05:18;10.10;99.90
8067;DHT22;4076;48.076;9.118;2023-04-23T06:07:44;10.10;99.90
8067;DHT22;4076;48.076;9.118;2023-04-23T06:10:10;10.20;99.90
8067;DHT22;4076;48.076;9.118;2023-04-23T06:12:35;10.20;99.90
8067;DHT22;4076;48.076;9.118;2023-04-23T06:15:05;10.30;99.90
8067;DHT22;4076;48.076;9.118;2023-04-23T06:17:31;10.40;99.90
8067;DHT22;4076;48.076;9.118;2023-04-23T06:19:57;10.40;99.90
8067;DHT22;4076;48.076;9.118;2023-04-23T06:22:22;10.50;99.90
8067;DHT22;4076;48.076;9.118;2023-04-23T06:24:48;10.70;99.90
8067;DHT22;4076;48.076;9.118;2023-04-23T06:27:14;10.70;99.90
8067;DHT22;4076;48.076;9.118;2023-04-23T06:29:39;10.80;99.90
8067;DHT22;4076;48.076;9.118;2023-04-23T06:32:05;10.80;99.90
8067;DHT22;4076;48.076;9.118;2023-04-23T06:34:30;10.80;99.90
8067;DHT22;4076;48.076;9.118;2023-04-23T06:36:56;10.80;99.90
8067;DHT22;4076;48.076;9.118;2023-04-23T06:39:22;10.80;99.90
8067;DHT22;4076;48.076;9.118;2023-04-23T06:41:47;10.90;99.90
8067;DHT22;4076;48.076;9.118;2023-04-23T06:44:13;11.00;99.90
8067;DHT22;4076;48.076;9.118;2023-04-23T06:46:38;11.10;99.90
8067;DHT22;4076;48.076;9.118;2023-04-23T06:49:04;11.30;99.90
8067;DHT22;4076;48.076;9.118;2023-04-23T06:51:30;11.30;99.90
8067;DHT22;4076;48.076;9.118;2023-04-23T06:53:56;11.40;99.90
8067;DHT22;4076;48.076;9.118;2023-04-23T06:56:23;11.30;99.90
8067;DHT22;4076;48.076;9.118;2023-04-23T06:58:48;11.20;99.90
8067;DHT22;4076;48.076;9.118;2023-04-23T07:01:14;11.20;99.90
8067;DHT22;4076;48.076;9.118;2023-04-23T07:03:40;11.20;99.90
8067;DHT22;4076;48.076;9.118;2023-04-23T07:06:09;11.20;99.90
8067;DHT22;4076;48.076;9.118;2023-04-23T07:08:34;11.10;99.90
8067;DHT22;4076;48.076;9.118;2023-04-23T07:11:00;11.20;99.90
8067;DHT22;4076;48.076;9.118;2023-04-23T07:13:26;11.20;99.90
8067;DHT22;4076;48.076;9.118;2023-04-23T07:15:52;11.30;99.90
8067;DHT22;4076;48.076;9.118;2023-04-23T07:18:17;11.40;99.90
8067;DHT22;4076;48.076;9.118;2023-04-23T07:20:43;11.50;99.90
8067;DHT22;4076;48.076;9.118;2023-04-23T07:23:09;11.70;99.90
8067;DHT22;4076;48.076;9.118;2023-04-23T07:25:35;11.80;99.90
8067;DHT22;4076;48.076;9.118;2023-04-23T07:28:01;11.90;99.90
8067;DHT22;4076;48.076;9.118;2023-04-23T07:30:26;12.00;99.90
8067;DHT22;4076;48.076;9.118;2023-04-23T07:32:55;12.20;99.90
8067;DHT22;4076;48.076;9.118;2023-04-23T07:35:21;12.30;99.90
8067;DHT22;4076;48.076;9.118;2023-04-23T07:37:47;12.40;99.90
8067;DHT22;4076;48.076;9.118;2023-04-23T07:40:21;12.40;99.90
8067;DHT22;4076;48.076;9.118;2023-04-23T07:42:47;12.30;99.90
8067;DHT22;4076;48.076;9.118;2023-04-23T07:45:13;12.30;99.90
8067;DHT22;4076;48.076;9.118;2023-04-23T07:47:38;12.20;99.90
8067;DHT22;4076;48.076;9.118;2023-04-23T07:50:04;12.10;99.90
8067;DHT22;4076;48.076;9.118;2023-04-23T07:52:30;12.10;99.90
8067;DHT22;4076;48.076;9.118;2023-04-23T07:54:56;12.10;99.90
8067;DHT22;4076;48.076;9.118;2023-04-23T07:57:22;12.10;99.90
8067;DHT22;4076;48.076;9.118;2023-04-23T07:59:47;12.10;99.90
8067;DHT22;4076;48.076;9.118;2023-04-23T08:02:13;12.20;99.90
8067;DHT22;4076;48.076;9.118;2023-04-23T08:04:38;12.40;99.90
8067;DHT22;4076;48.076;9.118;2023-04-23T08:07:04;12.50;99.90
8067;DHT22;4076;48.076;9.118;2023-04-23T08:09:30;12.60;99.90
8067;DHT22;4076;48.076;9.118;2023-04-23T08:11:55;12.70;99.90
8067;DHT22;4076;48.076;9.118;2023-04-23T08:14:22;12.60;99.90
8067;DHT22;4076;48.076;9.118;2023-04-23T08:16:47;12.60;99.90
8067;DHT22;4076;48.076;9.118;2023-04-23T08:19:13;12.50;99.90
8067;DHT22;4076;48.076;9.118;2023-04-23T08:21:39;12.60;99.90
8067;DHT22;4076;48.076;9.118;2023-04-23T08:24:05;12.60;99.90
8067;DHT22;4076;48.076;9.118;2023-04-23T08:26:32;12.50;99.90
8067;DHT22;4076;48.076;9.118;2023-04-23T08:28:58;12.60;99.90
8067;DHT22;4076;48.076;9.118;2023-04-23T08:31:25;12.60;99.90
8067;DHT22;4076;48.076;9.118;2023-04-23T08:33:51;12.80;99.90
8067;DHT22;4076;48.076;9.118;2023-04-23T08:36:17;13.00;99.90
8067;DHT22;4076;48.076;9.118;2023-04-23T08:38:42;13.10;99.90
8067;DHT22;4076;48.076;9.118;2023-04-23T08:41:10;13.10;99.90
8067;DHT22;4076;48.076;9.118;2023-04-23T08:43:50;13.40;99.90
8067;DHT22;4076;48.076;9.118;2023-04-23T08:46:17;13.80;99.90
8067;DHT22;4076;48.076;9.118;2023-04-23T08:48:44;14.10;99.90
8067;DHT22;4076;48.076;9.118;2023-04-23T08:51:14;14.00;99.90
8067;DHT22;4076;48.076;9.118;2023-04-23T08:53:43;14.00;99.90
8067;DHT22;4076;48.076;9.118;2023-04-23T08:56:12;13.80;99.90
8067;DHT22;4076;48.076;9.118;2023-04-23T08:58:38;13.70;99.90
8067;DHT22;4076;48.076;9.118;2023-04-23T09:01:06;13.60;99.90
8067;DHT22;4076;48.076;9.118;2023-04-23T09:03:32;13.70;99.90
8067;DHT22;4076;48.076;9.118;2023-04-23T09:05:58;14.10;99.90
8067;DHT22;4076;48.076;9.118;2023-04-23T09:08:24;14.50;99.90
8067;DHT22;4076;48.076;9.118;2023-04-23T09:10:51;15.10;99.90
8067;DHT22;4076;48.076;9.118;2023-04-23T09:13:18;16.00;99.90
8067;DHT22;4076;48.076;9.118;2023-04-23T09:15:44;16.70;99.90
8067;DHT22;4076;48.076;9.118;2023-04-23T09:18:10;17.30;97.90
8067;DHT22;4076;48.076;9.118;2023-04-23T09:20:36;17.80;98.60
8067;DHT22;4076;48.076;9.118;2023-04-23T09:23:08;17.90;94.20
8067;DHT22;4076;48.076;9.118;2023-04-23T09:25:34;18.30;93.40
8067;DHT22;4076;48.076;9.118;2023-04-23T09:28:01;18.40;89.90
8067;DHT22;4076;48.076;9.118;2023-04-23T09:30:27;18.20;87.50
8067;DHT22;4076;48.076;9.118;2023-04-23T09:32:53;18.10;88.80
8067;DHT22;4076;48.076;9.118;2023-04-23T09:35:19;18.30;86.40
8067;DHT22;4076;48.076;9.118;2023-04-23T09:37:47;20.10;87.40
8067;DHT22;4076;48.076;9.118;2023-04-23T09:40:17;21.30;69.30
8067;DHT22;4076;48.076;9.118;2023-04-23T09:45:14;24.20;60.60
8067;DHT22;4076;48.076;9.118;2023-04-23T09:47:47;25.50;54.60
8067;DHT22;4076;48.076;9.118;2023-04-23T09:50:13;25.70;50.60
8067;DHT22;4076;48.076;9.118;2023-04-23T09:52:39;25.80;51.20
8067;DHT22;4076;48.076;9.118;2023-04-23T09:55:06;25.70;48.60
8067;DHT22;4076;48.076;9.118;2023-04-23T09:57:35;25.00;47.60
8067;DHT22;4076;48.076;9.118;2023-04-23T10:02:37;24.00;49.70
8067;DHT22;4076;48.076;9.118;2023-04-23T10:05:19;23.60;49.10
8067;DHT22;4076;48.076;9.118;2023-04-23T10:07:46;23.40;49.30
8067;DHT22;4076;48.076;9.118;2023-04-23T10:10:16;23.20;50.00
8067;DHT22;4076;48.076;9.118;2023-04-23T10:12:43;23.10;49.50
8067;DHT22;4076;48.076;9.118;2023-04-23T10:15:09;22.90;49.50
8067;DHT22;4076;48.076;9.118;2023-04-23T10:17:36;22.60;50.30
8067;DHT22;4076;48.076;9.118;2023-04-23T10:20:03;22.60;51.90
8067;DHT22;4076;48.076;9.118;2023-04-23T10:22:32;22.60;49.40
8067;DHT22;4076;48.076;9.118;2023-04-23T10:24:59;22.30;49.20
8067;DHT22;4076;48.076;9.118;2023-04-23T10:27:29;21.80;50.90
8067;DHT22;4076;48.076;9.118;2023-04-23T10:29:56;21.80;51.90
8067;DHT22;4076;48.076;9.118;2023-04-23T10:32:23;21.80;50.40
8067;DHT22;4076;48.076;9.118;2023-04-23T10:34:49;21.40;50.30
8067;DHT22;4076;48.076;9.118;2023-04-23T10:37:15;21.20;52.00
8067;DHT22;4076;48.076;9.118;2023-04-23T10:39:44;21.00;52.20
8067;DHT22;4076;48.076;9.118;2023-04-23T10:42:12;20.90;52.60
8067;DHT22;4076;48.076;9.118;2023-04-23T10:44:40;20.90;52.30
8067;DHT22;4076;48.076;9.118;2023-04-23T10:47:11;20.80;52.80
8067;DHT22;4076;48.076;9.118;2023-04-23T10:49:38;20.80;54.30
8067;DHT22;4076;48.076;9.118;2023-04-23T10:52:08;20.80;53.10
8067;DHT22;4076;48.076;9.118;2023-04-23T10:54:35;20.60;53.50
8067;DHT22;4076;48.076;9.118;2023-04-23T10:57:05;20.50;53.70
8067;DHT22;4076;48.076;9.118;2023-04-23T10:59:37;20.50;54.00
8067;DHT22;4076;48.076;9.118;2023-04-23T11:02:11;20.50;53.40
8067;DHT22;4076;48.076;9.118;2023-04-23T11:04:56;20.40;53.90
8067;DHT22;4076;48.076;9.118;2023-04-23T11:07:27;20.20;53.90
8067;DHT22;4076;48.076;9.118;2023-04-23T11:09:55;20.20;54.90
8067;DHT22;4076;48.076;9.118;2023-04-23T11:14:53;20.00;55.90
8067;DHT22;4076;48.076;9.118;2023-04-23T11:17:57;20.20;56.70
8067;DHT22;4076;48.076;9.118;2023-04-23T11:20:20;20.30;55.80
8067;DHT22;4076;48.076;9.118;2023-04-23T11:22:50;20.20;54.40
8067;DHT22;4076;48.076;9.118;2023-04-23T11:25:24;20.20;54.60
8067;DHT22;4076;48.076;9.118;2023-04-23T11:27:52;19.90;54.60
8067;DHT22;4076;48.076;9.118;2023-04-23T11:30:26;19.70;56.80
8067;DHT22;4076;48.076;9.118;2023-04-23T11:32:55;19.30;55.40
8067;DHT22;4076;48.076;9.118;2023-04-23T11:35:23;18.90;56.00
8067;DHT22;4076;48.076;9.118;2023-04-23T11:37:52;18.50;56.50
8067;DHT22;4076;48.076;9.118;2023-04-23T11:40:18;18.30;58.40
8067;DHT22;4076;48.076;9.118;2023-04-23T11:42:46;18.60;60.80
8067;DHT22;4076;48.076;9.118;2023-04-23T11:45:26;19.00;58.20
8067;DHT22;4076;48.076;9.118;2023-04-23T11:47:56;19.10;57.50
8067;DHT22;4076;48.076;9.118;2023-04-23T11:50:30;19.20;57.20
8067;DHT22;4076;48.076;9.118;2023-04-23T11:53:03;19.40;57.40
8067;DHT22;4076;48.076;9.118;2023-04-23T11:55:29;19.50;57.40
8067;DHT22;4076;48.076;9.118;2023-04-23T11:57:56;19.30;56.90
8067;DHT22;4076;48.076;9.118;2023-04-23T12:00:24;18.90;58.50
8067;DHT22;4076;48.076;9.118;2023-04-23T12:02:57;18.60;58.10
8067;DHT22;4076;48.076;9.118;2023-04-23T12:05:28;18.50;58.60
8067;DHT22;4076;48.076;9.118;2023-04-23T12:08:08;18.50;58.80
8067;DHT22;4076;48.076;9.118;2023-04-23T12:10:59;18.40;59.60
8067;DHT22;4076;48.076;9.118;2023-04-23T12:13:28;18.40;58.90
8067;DHT22;4076;48.076;9.118;2023-04-23T12:16:02;18.50;60.30
8067;DHT22;4076;48.076;9.118;2023-04-23T12:18:39;18.60;63.80
8067;DHT22;4076;48.076;9.118;2023-04-23T12:21:11;18.50;60.50
8067;DHT22;4076;48.076;9.118;2023-04-23T12:23:42;18.20;59.80
8067;DHT22;4076;48.076;9.118;2023-04-23T12:26:15;18.00;59.60
8067;DHT22;4076;48.076;9.118;2023-04-23T12:28:50;18.00;61.00
8067;DHT22;4076;48.076;9.118;2023-04-23T12:31:23;18.10;60.10
8067;DHT22;4076;48.076;9.118;2023-04-23T12:34:02;17.90;61.30
8067;DHT22;4076;48.076;9.118;2023-04-23T12:36:28;17.90;59.70
8067;DHT22;4076;48.076;9.118;2023-04-23T12:42:09;18.20;59.50
8067;DHT22;4076;48.076;9.118;2023-04-23T12:44:37;18.40;59.90
8067;DHT22;4076;48.076;9.118;2023-04-23T12:47:04;18.50;59.90
8067;DHT22;4076;48.076;9.118;2023-04-23T12:49:33;18.70;59.30
8067;DHT22;4076;48.076;9.118;2023-04-23T12:52:00;18.80;59.50
8067;DHT22;4076;48.076;9.118;2023-04-23T12:54:28;18.80;59.40
8067;DHT22;4076;48.076;9.118;2023-04-23T12:56:55;18.90;58.10
8067;DHT22;4076;48.076;9.118;2023-04-23T12:59:21;19.00;57.40
8067;DHT22;4076;48.076;9.118;2023-04-23T13:01:47;18.80;58.00
8067;DHT22;4076;48.076;9.118;2023-04-23T13:04:13;18.50;57.00
8067;DHT22;4076;48.076;9.118;2023-04-23T13:06:40;18.40;58.30
8067;DHT22;4076;48.076;9.118;2023-04-23T13:09:05;18.20;58.00
8067;DHT22;4076;48.076;9.118;2023-04-23T13:11:35;18.20;60.90
8067;DHT22;4076;48.076;9.118;2023-04-23T13:14:00;18.40;59.00
8067;DHT22;4076;48.076;9.118;2023-04-23T13:16:26;18.60;58.70
8067;DHT22;4076;48.076;9.118;2023-04-23T13:18:52;18.90;58.60
8067;DHT22;4076;48.076;9.118;2023-04-23T13:21:18;19.10;58.00
8067;DHT22;4076;48.076;9.118;2023-04-23T13:23:44;19.30;57.70
8067;DHT22;4076;48.076;9.118;2023-04-23T13:26:09;19.20;55.50
8067;DHT22;4076;48.076;9.118;2023-04-23T13:28:35;19.00;56.30
8067;DHT22;4076;48.076;9.118;2023-04-23T13:31:04;19.10;57.00
8067;DHT22;4076;48.076;9.118;2023-04-23T13:33:30;19.20;57.00
8067;DHT22;4076;48.076;9.118;2023-04-23T13:35:57;19.40;57.00
8067;DHT22;4076;48.076;9.118;2023-04-23T13:38:24;19.50;56.30
8067;DHT22;4076;48.076;9.118;2023-04-23T13:40:51;19.50;56.30
8067;DHT22;4076;48.076;9.118;2023-04-23T13:43:17;19.50;55.20
8067;DHT22;4076;48.076;9.118;2023-04-23T13:45:42;19.50;54.40
8067;DHT22;4076;48.076;9.118;2023-04-23T13:48:08;19.30;55.00
8067;DHT22;4076;48.076;9.118;2023-04-23T13:50:34;19.30;55.10
8067;DHT22;4076;48.076;9.118;2023-04-23T13:53:00;19.40;55.80
8067;DHT22;4076;48.076;9.118;2023-04-23T13:55:26;19.40;55.80
8067;DHT22;4076;48.076;9.118;2023-04-23T13:57:52;19.50;56.60
8067;DHT22;4076;48.076;9.118;2023-04-23T14:00:22;19.70;54.90
8067;DHT22;4076;48.076;9.118;2023-04-23T14:02:48;19.60;54.40
8067;DHT22;4076;48.076;9.118;2023-04-23T14:05:14;19.60;53.80
8067;DHT22;4076;48.076;9.118;2023-04-23T14:07:40;19.40;53.10
8067;DHT22;4076;48.076;9.118;2023-04-23T14:10:05;19.30;55.00
8067;DHT22;4076;48.076;9.118;2023-04-23T14:12:31;19.40;53.30
8067;DHT22;4076;48.076;9.118;2023-04-23T14:14:57;19.50;54.40
8067;DHT22;4076;48.076;9.118;2023-04-23T14:17:22;19.70;54.60
8067;DHT22;4076;48.076;9.118;2023-04-23T14:19:48;19.80;54.30
8067;DHT22;4076;48.076;9.118;2023-04-23T14:22:14;19.90;54.80
8067;DHT22;4076;48.076;9.118;2023-04-23T14:24:44;19.90;54.60
8067;DHT22;4076;48.076;9.118;2023-04-23T14:27:10;19.90;54.00
8067;DHT22;4076;48.076;9.118;2023-04-23T14:32:04;19.60;53.10
8067;DHT22;4076;48.076;9.118;2023-04-23T14:34:31;19.30;54.00
8067;DHT22;4076;48.076;9.118;2023-04-23T14:36:56;19.20;54.00
8067;DHT22;4076;48.076;9.118;2023-04-23T14:39:22;19.20;54.60
8067;DHT22;4076;48.076;9.118;2023-04-23T14:41:50;19.20;53.90
8067;DHT22;4076;48.076;9.118;2023-04-23T14:44:16;19.20;52.70
8067;DHT22;4076;48.076;9.118;2023-04-23T14:46:41;19.30;53.50
8067;DHT22;4076;48.076;9.118;2023-04-23T14:49:07;19.40;53.70
8067;DHT22;4076;48.076;9.118;2023-04-23T14:51:33;19.50;53.60
8067;DHT22;4076;48.076;9.118;2023-04-23T14:53:58;19.50;52.80
8067;DHT22;4076;48.076;9.118;2023-04-23T14:56:24;19.60;53.00
8067;DHT22;4076;48.076;9.118;2023-04-23T14:58:50;19.70;52.60
8067;DHT22;4076;48.076;9.118;2023-04-23T15:01:16;19.70;51.70
8067;DHT22;4076;48.076;9.118;2023-04-23T15:03:43;19.50;50.70
8067;DHT22;4076;48.076;9.118;2023-04-23T15:06:09;19.30;51.40
8067;DHT22;4076;48.076;9.118;2023-04-23T15:08:35;19.10;52.20
8067;DHT22;4076;48.076;9.118;2023-04-23T15:11:01;19.00;53.60
8067;DHT22;4076;48.076;9.118;2023-04-23T15:16:26;18.80;53.20
8067;DHT22;4076;48.076;9.118;2023-04-23T15:19:01;18.70;54.00
8067;DHT22;4076;48.076;9.118;2023-04-23T15:21:28;18.60;54.10
8067;DHT22;4076;48.076;9.118;2023-04-23T15:23:54;18.60;54.00
8067;DHT22;4076;48.076;9.118;2023-04-23T15:26:20;18.60;54.40
8067;DHT22;4076;48.076;9.118;2023-04-23T15:28:47;18.70;54.90
8067;DHT22;4076;48.076;9.118;2023-04-23T15:31:13;18.70;54.80
8067;DHT22;4076;48.076;9.118;2023-04-23T15:33:39;18.70;54.20
8067;DHT22;4076;48.076;9.118;2023-04-23T15:36:06;18.70;54.50
8067;DHT22;4076;48.076;9.118;2023-04-23T15:38:32;18.80;55.10
8067;DHT22;4076;48.076;9.118;2023-04-23T15:40:59;18.80;54.50
8067;DHT22;4076;48.076;9.118;2023-04-23T15:43:24;18.70;55.70
8067;DHT22;4076;48.076;9.118;2023-04-23T15:45:51;18.50;54.30
8067;DHT22;4076;48.076;9.118;2023-04-23T15:48:18;18.50;55.20
8067;DHT22;4076;48.076;9.118;2023-04-23T15:50:44;18.40;54.70
8067;DHT22;4076;48.076;9.118;2023-04-23T15:53:10;18.20;55.60
8067;DHT22;4076;48.076;9.118;2023-04-23T15:55:35;18.10;56.00
8067;DHT22;4076;48.076;9.118;2023-04-23T15:58:03;18.00;56.50
8067;DHT22;4076;48.076;9.118;2023-04-23T16:00:30;17.90;56.50
8067;DHT22;4076;48.076;9.118;2023-04-23T16:02:58;17.90;57.10
8067;DHT22;4076;48.076;9.118;2023-04-23T16:05:26;17.90;56.90
8067;DHT22;4076;48.076;9.118;2023-04-23T16:07:52;17.90;56.30
8067;DHT22;4076;48.076;9.118;2023-04-23T16:10:17;17.80;57.10
8067;DHT22;4076;48.076;9.118;2023-04-23T16:12:43;17.60;57.00
8067;DHT22;4076;48.076;9.118;2023-04-23T16:15:11;17.40;57.60
8067;DHT22;4076;48.076;9.118;2023-04-23T16:17:36;17.40;57.00